createdAt,value
2017-04-10T00:00:19.918Z,927.79
2017-04-10T00:00:48.219Z,927.78
2017-04-10T00:01:16.572Z,927.81
2017-04-10T00:01:44.884Z,927.77
2017-04-10T00:02:13.045Z,927.76
2017-04-10T00:02:41.226Z,927.83
2017-04-10T00:03:09.593Z,927.76
2017-04-10T00:03:37.986Z,927.78
2017-04-10T00:04:06.189Z,927.79
2017-04-10T00:05:17.622Z,927.86
2017-04-10T00:05:45.905Z,927.83
2017-04-10T00:06:14.156Z,927.84
2017-04-10T00:06:42.372Z,927.82
2017-04-10T00:07:10.729Z,927.77
2017-04-10T00:07:39.138Z,927.82
2017-04-10T00:08:07.381Z,927.8
2017-04-10T00:08:35.681Z,927.81
2017-04-10T00:09:03.955Z,927.85
2017-04-10T00:09:32.178Z,927.84
2017-04-10T00:10:00.477Z,927.82
2017-04-10T00:11:11.639Z,927.84
2017-04-10T00:11:39.924Z,927.8
2017-04-10T00:12:08.278Z,927.81
2017-04-10T00:12:36.589Z,927.84
2017-04-10T00:13:04.853Z,927.84
2017-04-10T00:13:33.256Z,927.84
2017-04-10T00:14:01.510Z,927.85
2017-04-10T00:14:29.873Z,927.84
2017-04-10T00:14:57.962Z,927.86
2017-04-10T00:15:26.455Z,927.82
2017-04-10T00:15:54.851Z,927.84
2017-04-10T00:17:06.195Z,927.79
2017-04-10T00:17:34.567Z,927.85
2017-04-10T00:18:02.827Z,927.83
2017-04-10T00:18:31.240Z,927.8
2017-04-10T00:18:59.608Z,927.79
2017-04-10T00:19:27.919Z,927.81
2017-04-10T00:19:56.079Z,927.76
2017-04-10T00:20:24.345Z,927.77
2017-04-10T00:20:52.624Z,927.78
2017-04-10T00:21:20.979Z,927.79
2017-04-10T00:21:49.262Z,927.78
2017-04-10T00:23:00.606Z,927.83
2017-04-10T00:23:28.983Z,927.81
2017-04-10T00:23:57.342Z,927.82
2017-04-10T00:24:25.577Z,927.85
2017-04-10T00:24:53.930Z,927.81
2017-04-10T00:25:22.242Z,927.87
2017-04-10T00:25:50.497Z,927.78
2017-04-10T00:26:18.859Z,927.82
2017-04-10T00:26:47.226Z,927.84
2017-04-10T00:27:15.631Z,927.83
2017-04-10T00:27:44.033Z,927.82
2017-04-10T00:28:55.375Z,927.82
2017-04-10T00:29:23.747Z,927.81
2017-04-10T00:29:52.004Z,927.8
2017-04-10T00:30:20.306Z,927.8
2017-04-10T00:30:48.478Z,927.8
2017-04-10T00:31:16.787Z,927.77
2017-04-10T00:31:45.034Z,927.79
2017-04-10T00:32:13.400Z,927.83
2017-04-10T00:32:41.504Z,927.8
2017-04-10T00:33:09.973Z,927.79
2017-04-10T00:33:38.279Z,927.85
2017-04-10T00:34:49.718Z,927.85
2017-04-10T00:35:18.100Z,927.84
2017-04-10T00:35:46.460Z,927.83
2017-04-10T00:36:14.843Z,927.81
2017-04-10T00:36:43.402Z,927.84
2017-04-10T00:37:11.714Z,927.83
2017-04-10T00:37:39.787Z,927.86
2017-04-10T00:38:07.961Z,927.83
2017-04-10T00:38:36.335Z,927.81
2017-04-10T00:39:04.746Z,927.82
2017-04-10T00:39:33.139Z,927.83
2017-04-10T00:40:44.391Z,927.83
2017-04-10T00:41:12.671Z,927.86
2017-04-10T00:41:40.927Z,927.87
2017-04-10T00:42:09.117Z,927.84
2017-04-10T00:42:37.471Z,927.85
2017-04-10T00:43:05.795Z,927.86
2017-04-10T00:43:33.859Z,927.87
2017-04-10T00:44:02.324Z,927.89
2017-04-10T00:44:30.514Z,927.88
2017-04-10T00:44:58.910Z,927.86
2017-04-10T00:45:27.289Z,927.86
2017-04-10T00:46:38.637Z,927.86
2017-04-10T00:47:07.018Z,927.84
2017-04-10T00:47:35.373Z,927.84
2017-04-10T00:48:03.788Z,927.85
2017-04-10T00:48:31.962Z,927.86
2017-04-10T00:49:00.368Z,927.86
2017-04-10T00:49:28.529Z,927.85
2017-04-10T00:49:56.834Z,927.87
2017-04-10T00:50:25.203Z,927.85
2017-04-10T00:50:53.938Z,927.86
2017-04-10T00:51:22.117Z,927.89
2017-04-10T00:52:33.569Z,927.86
2017-04-10T00:53:01.944Z,927.9
2017-04-10T00:53:30.197Z,927.89
2017-04-10T00:53:58.617Z,927.9
2017-04-10T00:54:26.974Z,927.91
2017-04-10T00:54:55.380Z,927.9
2017-04-10T00:55:23.726Z,927.92
2017-04-10T00:55:51.901Z,927.9
2017-04-10T00:56:20.212Z,927.89
2017-04-10T00:56:48.788Z,927.92
2017-04-10T00:57:17.060Z,927.88
2017-04-10T00:58:28.396Z,927.89
2017-04-10T00:58:56.767Z,927.87
2017-04-10T00:59:24.944Z,927.84
2017-04-10T00:59:53.365Z,927.86
2017-04-10T01:00:21.551Z,927.84
2017-04-10T01:00:49.670Z,927.84
2017-04-10T01:01:17.734Z,927.82
2017-04-10T01:01:46.102Z,927.85
2017-04-10T01:02:14.375Z,927.86
2017-04-10T01:02:42.863Z,927.89
2017-04-10T01:03:11.247Z,927.88
2017-04-10T01:04:22.589Z,927.88
2017-04-10T01:04:50.970Z,927.84
2017-04-10T01:05:19.318Z,927.85
2017-04-10T01:05:47.837Z,927.85
2017-04-10T01:06:16.103Z,927.84
2017-04-10T01:06:44.415Z,927.84
2017-04-10T01:07:12.768Z,927.84
2017-04-10T01:07:41.132Z,927.83
2017-04-10T01:08:09.414Z,927.85
2017-04-10T01:08:37.703Z,927.84
2017-04-10T01:09:05.990Z,927.87
2017-04-10T01:10:17.433Z,927.87
2017-04-10T01:10:45.618Z,927.89
2017-04-10T01:11:13.968Z,927.88
2017-04-10T01:11:42.296Z,927.91
2017-04-10T01:12:10.559Z,927.89
2017-04-10T01:12:38.874Z,927.91
2017-04-10T01:13:07.129Z,927.91
2017-04-10T01:13:35.397Z,927.89
2017-04-10T01:14:03.671Z,927.92
2017-04-10T01:14:31.963Z,927.89
2017-04-10T01:15:00.339Z,927.87
2017-04-10T01:16:11.772Z,927.89
2017-04-10T01:16:40.054Z,927.86
2017-04-10T01:17:08.310Z,927.88
2017-04-10T01:17:36.623Z,927.86
2017-04-10T01:18:04.982Z,927.85
2017-04-10T01:18:33.300Z,927.86
2017-04-10T01:19:01.553Z,927.83
2017-04-10T01:19:29.914Z,927.82
2017-04-10T01:19:57.963Z,927.85
2017-04-10T01:20:26.326Z,927.82
2017-04-10T01:20:54.886Z,927.86
2017-04-10T01:22:06.138Z,927.82
2017-04-10T01:22:34.333Z,927.9
2017-04-10T01:23:02.719Z,927.88
2017-04-10T01:23:30.843Z,927.89
2017-04-10T01:23:59.203Z,927.9
2017-04-10T01:24:27.518Z,927.89
2017-04-10T01:24:55.681Z,927.88
2017-04-10T01:25:24.040Z,927.92
2017-04-10T01:25:52.413Z,927.89
2017-04-10T01:26:21.191Z,927.89
2017-04-10T01:26:49.404Z,927.88
2017-04-10T01:28:00.838Z,927.84
2017-04-10T01:28:29.116Z,927.85
2017-04-10T01:28:57.474Z,927.86
2017-04-10T01:29:25.576Z,927.86
2017-04-10T01:29:53.649Z,927.83
2017-04-10T01:30:21.864Z,927.86
2017-04-10T01:30:50.112Z,927.83
2017-04-10T01:31:18.101Z,927.86
2017-04-10T01:31:46.376Z,927.84
2017-04-10T01:32:14.760Z,927.84
2017-04-10T01:32:43.046Z,927.85
2017-04-10T01:33:54.478Z,927.86
2017-04-10T01:34:22.857Z,927.84
2017-04-10T01:34:51.204Z,927.82
2017-04-10T01:35:19.518Z,927.82
2017-04-10T01:35:47.781Z,927.82
2017-04-10T01:36:15.811Z,927.84
2017-04-10T01:36:44.152Z,927.79
2017-04-10T01:37:12.428Z,927.84
2017-04-10T01:37:40.801Z,927.82
2017-04-10T01:38:09.230Z,927.8
2017-04-10T01:38:37.513Z,927.8
2017-04-10T01:39:48.942Z,927.78
2017-04-10T01:40:17.132Z,927.86
2017-04-10T01:40:45.488Z,927.82
2017-04-10T01:41:13.931Z,927.85
2017-04-10T01:41:42.246Z,927.79
2017-04-10T01:42:10.464Z,927.8
2017-04-10T01:42:38.799Z,927.82
2017-04-10T01:43:06.973Z,927.79
2017-04-10T01:43:35.119Z,927.8
2017-04-10T01:44:03.568Z,927.75
2017-04-10T01:44:31.955Z,927.76
2017-04-10T01:45:43.294Z,927.78
2017-04-10T01:46:11.587Z,927.73
2017-04-10T01:46:39.841Z,927.74
2017-04-10T01:47:08.258Z,927.71
2017-04-10T01:47:36.612Z,927.73
2017-04-10T01:48:05.044Z,927.71
2017-04-10T01:48:33.354Z,927.72
2017-04-10T01:49:01.719Z,927.75
2017-04-10T01:49:30.092Z,927.68
2017-04-10T01:49:58.513Z,927.67
2017-04-10T01:50:26.865Z,927.7
2017-04-10T01:51:38.017Z,927.69
2017-04-10T01:52:06.116Z,927.72
2017-04-10T01:52:34.471Z,927.66
2017-04-10T01:53:02.769Z,927.64
2017-04-10T01:53:30.938Z,927.63
2017-04-10T01:53:59.342Z,927.67
2017-04-10T01:54:27.594Z,927.62
2017-04-10T01:54:55.859Z,927.65
2017-04-10T01:55:24.226Z,927.64
2017-04-10T01:55:52.466Z,927.67
2017-04-10T01:56:21.495Z,927.68
2017-04-10T01:57:32.740Z,927.66
2017-04-10T01:58:01.114Z,927.65
2017-04-10T01:58:29.458Z,927.67
2017-04-10T01:58:57.775Z,927.65
2017-04-10T01:59:26.130Z,927.6
2017-04-10T01:59:54.437Z,927.62
2017-04-10T02:00:22.503Z,927.58
2017-04-10T02:00:50.681Z,927.63
2017-04-10T02:01:19.053Z,927.64
2017-04-10T02:01:47.391Z,927.64
2017-04-10T02:02:15.656Z,927.62
2017-04-10T02:03:26.994Z,927.64
2017-04-10T02:03:55.175Z,927.64
2017-04-10T02:04:23.528Z,927.62
2017-04-10T02:04:51.824Z,927.63
2017-04-10T02:05:20.179Z,927.62
2017-04-10T02:05:48.482Z,927.63
2017-04-10T02:06:16.634Z,927.6
2017-04-10T02:06:44.997Z,927.63
2017-04-10T02:07:13.179Z,927.6
2017-04-10T02:07:41.542Z,927.6
2017-04-10T02:08:09.798Z,927.65
2017-04-10T02:09:21.143Z,927.59
2017-04-10T02:09:49.419Z,927.6
2017-04-10T02:10:17.771Z,927.6
2017-04-10T02:10:45.982Z,927.6
2017-04-10T02:11:14.246Z,927.62
2017-04-10T02:11:42.545Z,927.58
2017-04-10T02:12:10.890Z,927.58
2017-04-10T02:12:39.240Z,927.6
2017-04-10T02:13:07.602Z,927.61
2017-04-10T02:13:36.794Z,927.6
2017-04-10T02:14:05.052Z,927.63
2017-04-10T02:15:16.303Z,927.63
2017-04-10T02:15:44.481Z,927.64
2017-04-10T02:16:12.834Z,927.64
2017-04-10T02:16:41.148Z,927.65
2017-04-10T02:17:09.502Z,927.68
2017-04-10T02:17:37.628Z,927.66
2017-04-10T02:18:05.880Z,927.7
2017-04-10T02:18:34.064Z,927.63
2017-04-10T02:19:02.327Z,927.67
2017-04-10T02:19:30.698Z,927.64
2017-04-10T02:19:59.061Z,927.66
2017-04-10T02:21:10.492Z,927.68
2017-04-10T02:21:38.684Z,927.67
2017-04-10T02:22:07.035Z,927.61
2017-04-10T02:22:35.350Z,927.61
2017-04-10T02:23:03.609Z,927.61
2017-04-10T02:23:31.925Z,927.63
2017-04-10T02:24:00.178Z,927.64
2017-04-10T02:24:28.352Z,927.66
2017-04-10T02:24:56.717Z,927.61
2017-04-10T02:25:25.037Z,927.67
2017-04-10T02:25:53.383Z,927.64
2017-04-10T02:27:04.817Z,927.65
2017-04-10T02:27:33.187Z,927.69
2017-04-10T02:28:01.530Z,927.7
2017-04-10T02:28:29.815Z,927.7
2017-04-10T02:28:57.984Z,927.65
2017-04-10T02:29:26.395Z,927.67
2017-04-10T02:29:54.462Z,927.65
2017-04-10T02:30:22.743Z,927.68
2017-04-10T02:30:51.101Z,927.69
2017-04-10T02:31:19.467Z,927.65
2017-04-10T02:31:47.825Z,927.69
2017-04-10T02:32:59.162Z,927.68
2017-04-10T02:33:27.531Z,927.6
2017-04-10T02:33:55.878Z,927.63
2017-04-10T02:34:24.107Z,927.61
2017-04-10T02:34:52.362Z,927.57
2017-04-10T02:35:20.666Z,927.59
2017-04-10T02:35:48.819Z,927.57
2017-04-10T02:36:16.987Z,927.55
2017-04-10T02:36:45.165Z,927.55
2017-04-10T02:37:13.495Z,927.54
2017-04-10T02:37:41.750Z,927.59
2017-04-10T02:38:53.184Z,927.55
2017-04-10T02:39:21.555Z,927.61
2017-04-10T02:39:49.899Z,927.6
2017-04-10T02:40:18.225Z,927.58
2017-04-10T02:40:46.489Z,927.6
2017-04-10T02:41:14.795Z,927.56
2017-04-10T02:41:42.945Z,927.6
2017-04-10T02:42:11.221Z,927.59
2017-04-10T02:42:39.495Z,927.59
2017-04-10T02:43:07.855Z,927.57
2017-04-10T02:43:36.122Z,927.57
2017-04-10T02:44:47.372Z,927.55
2017-04-10T02:45:15.745Z,927.48
2017-04-10T02:45:43.999Z,927.51
2017-04-10T02:46:12.319Z,927.48
2017-04-10T02:46:40.490Z,927.52
2017-04-10T02:47:08.895Z,927.46
2017-04-10T02:47:37.137Z,927.5
2017-04-10T02:48:05.505Z,927.55
2017-04-10T02:48:33.776Z,927.48
2017-04-10T02:49:02.226Z,927.53
2017-04-10T02:49:30.482Z,927.49
2017-04-10T02:50:41.733Z,927.46
2017-04-10T02:51:09.918Z,927.54
2017-04-10T02:51:38.176Z,927.51
2017-04-10T02:52:06.398Z,927.5
2017-04-10T02:52:34.655Z,927.49
2017-04-10T02:53:03.056Z,927.52
2017-04-10T02:53:31.307Z,927.47
2017-04-10T02:53:59.572Z,927.5
2017-04-10T02:54:27.932Z,927.48
2017-04-10T02:54:56.299Z,927.43
2017-04-10T02:55:24.564Z,927.45
2017-04-10T02:56:35.992Z,927.44
2017-04-10T02:57:04.306Z,927.46
2017-04-10T02:57:32.560Z,927.42
2017-04-10T02:58:00.667Z,927.46
2017-04-10T02:58:28.931Z,927.46
2017-04-10T02:58:57.238Z,927.42
2017-04-10T02:59:25.397Z,927.48
2017-04-10T02:59:53.663Z,927.5
2017-04-10T03:00:21.934Z,927.44
2017-04-10T03:00:50.327Z,927.47
2017-04-10T03:01:18.679Z,927.45
2017-04-10T03:02:30.117Z,927.47
2017-04-10T03:02:58.392Z,927.48
2017-04-10T03:03:26.649Z,927.44
2017-04-10T03:03:55.037Z,927.4
2017-04-10T03:04:23.203Z,927.41
2017-04-10T03:04:51.606Z,927.43
2017-04-10T03:05:19.853Z,927.43
2017-04-10T03:05:48.118Z,927.37
2017-04-10T03:06:16.389Z,927.38
2017-04-10T03:06:44.745Z,927.38
2017-04-10T03:07:13.092Z,927.39
2017-04-10T03:08:24.434Z,927.37
2017-04-10T03:08:52.800Z,927.38
2017-04-10T03:09:21.148Z,927.37
2017-04-10T03:09:49.382Z,927.39
2017-04-10T03:10:17.636Z,927.37
2017-04-10T03:10:46.036Z,927.36
2017-04-10T03:11:14.288Z,927.38
2017-04-10T03:11:42.563Z,927.36
2017-04-10T03:12:10.841Z,927.34
2017-04-10T03:12:39.180Z,927.33
2017-04-10T03:13:07.444Z,927.32
2017-04-10T03:14:18.879Z,927.3
2017-04-10T03:14:47.254Z,927.28
2017-04-10T03:15:15.510Z,927.33
2017-04-10T03:15:43.723Z,927.34
2017-04-10T03:16:12.073Z,927.31
2017-04-10T03:16:40.290Z,927.32
2017-04-10T03:17:08.533Z,927.29
2017-04-10T03:17:36.620Z,927.32
2017-04-10T03:18:04.988Z,927.26
2017-04-10T03:18:33.327Z,927.28
2017-04-10T03:19:01.589Z,927.3
2017-04-10T03:20:13.025Z,927.26
2017-04-10T03:20:41.306Z,927.28
2017-04-10T03:21:09.559Z,927.23
2017-04-10T03:21:37.883Z,927.24
2017-04-10T03:22:06.236Z,927.21
2017-04-10T03:22:34.639Z,927.21
2017-04-10T03:23:02.809Z,927.21
2017-04-10T03:23:30.979Z,927.18
2017-04-10T03:23:59.348Z,927.19
2017-04-10T03:24:27.781Z,927.16
2017-04-10T03:24:55.952Z,927.18
2017-04-10T03:26:07.018Z,927.19
2017-04-10T03:26:35.205Z,927.2
2017-04-10T03:27:03.557Z,927.16
2017-04-10T03:27:31.966Z,927.17
2017-04-10T03:28:00.231Z,927.18
2017-04-10T03:28:28.638Z,927.19
2017-04-10T03:28:56.985Z,927.17
2017-04-10T03:29:25.252Z,927.21
2017-04-10T03:29:53.441Z,927.2
2017-04-10T03:30:21.788Z,927.17
2017-04-10T03:30:49.865Z,927.17
2017-04-10T03:32:01.294Z,927.19
2017-04-10T03:32:29.668Z,927.14
2017-04-10T03:32:57.923Z,927.16
2017-04-10T03:33:25.922Z,927.2
2017-04-10T03:33:54.183Z,927.18
2017-04-10T03:34:22.483Z,927.16
2017-04-10T03:34:50.820Z,927.19
2017-04-10T03:35:19.088Z,927.19
2017-04-10T03:35:47.269Z,927.17
2017-04-10T03:36:15.586Z,927.17
2017-04-10T03:36:43.841Z,927.15
2017-04-10T03:37:55.087Z,927.17
2017-04-10T03:38:23.458Z,927.16
2017-04-10T03:38:51.716Z,927.15
2017-04-10T03:39:19.895Z,927.15
2017-04-10T03:39:48.255Z,927.16
2017-04-10T03:40:16.567Z,927.13
2017-04-10T03:40:44.812Z,927.15
2017-04-10T03:41:13.080Z,927.15
2017-04-10T03:41:41.391Z,927.15
2017-04-10T03:42:09.795Z,927.15
2017-04-10T03:42:38.054Z,927.16
2017-04-10T03:43:49.390Z,927.16
2017-04-10T03:44:17.766Z,927.16
2017-04-10T03:44:46.016Z,927.17
2017-04-10T03:45:14.189Z,927.16
2017-04-10T03:45:42.449Z,927.16
2017-04-10T03:46:10.568Z,927.18
2017-04-10T03:46:38.904Z,927.2
2017-04-10T03:47:07.078Z,927.19
2017-04-10T03:47:35.357Z,927.14
2017-04-10T03:48:03.763Z,927.17
2017-04-10T03:48:31.925Z,927.17
2017-04-10T03:49:43.354Z,927.15
2017-04-10T03:50:11.637Z,927.14
2017-04-10T03:50:39.890Z,927.15
2017-04-10T03:51:08.160Z,927.14
2017-04-10T03:51:36.418Z,927.14
2017-04-10T03:52:04.538Z,927.14
2017-04-10T03:52:32.686Z,927.2
2017-04-10T03:53:00.857Z,927.15
2017-04-10T03:53:29.130Z,927.15
2017-04-10T03:53:57.525Z,927.17
2017-04-10T03:54:25.794Z,927.14
2017-04-10T03:55:37.228Z,927.11
2017-04-10T03:56:05.507Z,927.14
2017-04-10T03:56:33.670Z,927.14
2017-04-10T03:57:01.923Z,927.14
2017-04-10T03:57:30.184Z,927.14
2017-04-10T03:57:58.304Z,927.13
2017-04-10T03:58:26.557Z,927.14
2017-04-10T03:58:54.923Z,927.13
2017-04-10T03:59:23.008Z,927.08
2017-04-10T03:59:51.294Z,927.1
2017-04-10T04:00:19.550Z,927.12
2017-04-10T04:01:30.701Z,927.13
2017-04-10T04:01:58.976Z,927.11
2017-04-10T04:02:27.323Z,927.07
2017-04-10T04:02:55.652Z,927.11
2017-04-10T04:03:23.821Z,927.11
2017-04-10T04:03:52.225Z,927.08
2017-04-10T04:04:20.565Z,927.09
2017-04-10T04:04:48.832Z,927.12
2017-04-10T04:05:17.105Z,927.08
2017-04-10T04:05:45.384Z,927.07
2017-04-10T04:06:13.735Z,927.07
2017-04-10T04:07:25.160Z,927.05
2017-04-10T04:07:53.534Z,927.04
2017-04-10T04:08:21.783Z,927.04
2017-04-10T04:08:49.744Z,927.04
2017-04-10T04:09:18.001Z,927.03
2017-04-10T04:09:46.308Z,927.04
2017-04-10T04:10:14.463Z,927.04
2017-04-10T04:10:42.727Z,927.01
2017-04-10T04:11:11.088Z,927.03
2017-04-10T04:11:39.278Z,926.98
2017-04-10T04:12:07.399Z,926.99
2017-04-10T04:13:18.702Z,927.01
2017-04-10T04:13:46.976Z,926.95
2017-04-10T04:14:15.228Z,926.94
2017-04-10T04:14:43.474Z,926.96
2017-04-10T04:15:11.729Z,926.95
2017-04-10T04:15:39.939Z,926.95
2017-04-10T04:16:08.279Z,926.93
2017-04-10T04:16:36.543Z,926.92
2017-04-10T04:17:04.909Z,926.93
2017-04-10T04:17:33.198Z,926.93
2017-04-10T04:18:01.455Z,926.9
2017-04-10T04:19:12.793Z,926.87
2017-04-10T04:19:41.164Z,926.92
2017-04-10T04:20:09.427Z,926.91
2017-04-10T04:20:37.670Z,926.89
2017-04-10T04:21:05.835Z,926.84
2017-04-10T04:21:34.146Z,926.88
2017-04-10T04:22:02.479Z,926.87
2017-04-10T04:22:30.653Z,926.91
2017-04-10T04:22:58.927Z,926.89
2017-04-10T04:23:27.205Z,926.87
2017-04-10T04:23:55.464Z,926.85
2017-04-10T04:25:06.707Z,926.86
2017-04-10T04:25:34.899Z,926.83
2017-04-10T04:26:03.248Z,926.84
2017-04-10T04:26:31.392Z,926.78
2017-04-10T04:26:59.776Z,926.82
2017-04-10T04:27:27.998Z,926.8
2017-04-10T04:27:56.151Z,926.81
2017-04-10T04:28:24.415Z,926.81
2017-04-10T04:28:52.686Z,926.77
2017-04-10T04:29:20.872Z,926.79
2017-04-10T04:29:49.038Z,926.79
2017-04-10T04:31:00.379Z,926.82
2017-04-10T04:31:28.654Z,926.8
2017-04-10T04:31:56.811Z,926.77
2017-04-10T04:32:25.050Z,926.8
2017-04-10T04:32:53.222Z,926.76
2017-04-10T04:33:21.529Z,926.77
2017-04-10T04:33:49.675Z,926.78
2017-04-10T04:34:17.942Z,926.77
2017-04-10T04:34:46.214Z,926.78
2017-04-10T04:35:14.498Z,926.79
2017-04-10T04:35:42.843Z,926.74
2017-04-10T04:36:54.275Z,926.75
2017-04-10T04:37:22.454Z,926.77
2017-04-10T04:37:50.708Z,926.75
2017-04-10T04:38:18.861Z,926.69
2017-04-10T04:38:47.114Z,926.71
2017-04-10T04:39:15.422Z,926.76
2017-04-10T04:39:43.479Z,926.7
2017-04-10T04:40:11.744Z,926.69
2017-04-10T04:40:39.925Z,926.7
2017-04-10T04:41:08.208Z,926.73
2017-04-10T04:41:36.468Z,926.71
2017-04-10T04:42:47.807Z,926.73
2017-04-10T04:43:16.023Z,926.72
2017-04-10T04:43:44.279Z,926.71
2017-04-10T04:44:12.433Z,926.66
2017-04-10T04:44:40.690Z,926.69
2017-04-10T04:45:09.085Z,926.67
2017-04-10T04:45:37.336Z,926.67
2017-04-10T04:46:05.604Z,926.68
2017-04-10T04:46:33.781Z,926.64
2017-04-10T04:47:02.166Z,926.68
2017-04-10T04:47:30.425Z,926.62
2017-04-10T04:48:41.761Z,926.64
2017-04-10T04:49:10.034Z,926.6
2017-04-10T04:49:38.188Z,926.6
2017-04-10T04:50:06.430Z,926.61
2017-04-10T04:50:34.597Z,926.64
2017-04-10T04:51:02.905Z,926.63
2017-04-10T04:51:31.146Z,926.65
2017-04-10T04:51:59.503Z,926.64
2017-04-10T04:52:27.686Z,926.64
2017-04-10T04:52:55.875Z,926.64
2017-04-10T04:53:24.142Z,926.62
2017-04-10T04:54:35.480Z,926.62
2017-04-10T04:55:03.666Z,926.58
2017-04-10T04:55:32.014Z,926.53
2017-04-10T04:56:00.254Z,926.58
2017-04-10T04:56:28.428Z,926.55
2017-04-10T04:56:56.550Z,926.5
2017-04-10T04:57:24.888Z,926.47
2017-04-10T04:57:53.245Z,926.47
2017-04-10T04:58:21.510Z,926.48
2017-04-10T04:58:49.696Z,926.45
2017-04-10T04:59:18.052Z,926.46
2017-04-10T05:00:29.300Z,926.43
2017-04-10T05:00:57.577Z,926.44
2017-04-10T05:01:25.832Z,926.4
2017-04-10T05:01:54.072Z,926.4
2017-04-10T05:02:22.330Z,926.41
2017-04-10T05:02:50.731Z,926.43
2017-04-10T05:03:18.976Z,926.39
2017-04-10T05:03:47.334Z,926.41
2017-04-10T05:04:15.604Z,926.42
2017-04-10T05:04:43.979Z,926.36
2017-04-10T05:05:12.331Z,926.35
2017-04-10T05:06:23.765Z,926.38
2017-04-10T05:06:51.941Z,926.37
2017-04-10T05:07:20.289Z,926.34
2017-04-10T05:07:48.527Z,926.34
2017-04-10T05:08:16.692Z,926.39
2017-04-10T05:08:45.001Z,926.38
2017-04-10T05:09:13.340Z,926.38
2017-04-10T05:09:41.608Z,926.36
2017-04-10T05:10:09.784Z,926.39
2017-04-10T05:10:37.879Z,926.37
2017-04-10T05:11:06.236Z,926.39
2017-04-10T05:12:17.480Z,926.41
2017-04-10T05:12:45.754Z,926.4
2017-04-10T05:13:14.006Z,926.41
2017-04-10T05:13:42.159Z,926.38
2017-04-10T05:14:10.420Z,926.41
2017-04-10T05:14:38.725Z,926.42
2017-04-10T05:15:07.070Z,926.4
2017-04-10T05:15:35.333Z,926.4
2017-04-10T05:16:03.512Z,926.37
2017-04-10T05:16:31.887Z,926.39
2017-04-10T05:16:59.955Z,926.42
2017-04-10T05:18:11.199Z,926.41
2017-04-10T05:18:39.474Z,926.39
2017-04-10T05:19:07.822Z,926.39
2017-04-10T05:19:35.877Z,926.42
2017-04-10T05:20:04.135Z,926.41
2017-04-10T05:20:32.534Z,926.4
2017-04-10T05:21:00.875Z,926.41
2017-04-10T05:21:29.236Z,926.39
2017-04-10T05:21:57.504Z,926.36
2017-04-10T05:22:25.881Z,926.37
2017-04-10T05:22:54.053Z,926.39
2017-04-10T05:24:05.393Z,926.39
2017-04-10T05:24:33.669Z,926.35
2017-04-10T05:25:01.922Z,926.34
2017-04-10T05:25:30.163Z,926.34
2017-04-10T05:25:58.330Z,926.36
2017-04-10T05:26:26.730Z,926.35
2017-04-10T05:26:54.975Z,926.35
2017-04-10T05:27:23.234Z,926.33
2017-04-10T05:27:51.599Z,926.36
2017-04-10T05:28:19.885Z,926.33
2017-04-10T05:28:48.140Z,926.36
2017-04-10T05:29:59.476Z,926.31
2017-04-10T05:30:27.662Z,926.31
2017-04-10T05:30:56.008Z,926.3
2017-04-10T05:31:24.346Z,926.34
2017-04-10T05:31:52.512Z,926.31
2017-04-10T05:32:20.917Z,926.28
2017-04-10T05:32:49.159Z,926.28
2017-04-10T05:33:17.338Z,926.27
2017-04-10T05:33:45.706Z,926.27
2017-04-10T05:34:13.987Z,926.29
2017-04-10T05:34:42.150Z,926.28
2017-04-10T05:35:53.486Z,926.3
2017-04-10T05:36:21.670Z,926.26
2017-04-10T05:36:49.925Z,926.27
2017-04-10T05:37:18.255Z,926.23
2017-04-10T05:37:46.325Z,926.2
2017-04-10T05:38:14.721Z,926.23
2017-04-10T05:38:43.062Z,926.24
2017-04-10T05:39:11.327Z,926.19
2017-04-10T05:39:39.599Z,926.22
2017-04-10T05:40:07.792Z,926.19
2017-04-10T05:40:36.147Z,926.18
2017-04-10T05:41:47.576Z,926.13
2017-04-10T05:42:15.858Z,926.19
2017-04-10T05:42:44.020Z,926.21
2017-04-10T05:43:12.356Z,926.16
2017-04-10T05:43:40.520Z,926.17
2017-04-10T05:44:08.917Z,926.18
2017-04-10T05:44:37.074Z,926.16
2017-04-10T05:45:05.245Z,926.2
2017-04-10T05:45:33.513Z,926.16
2017-04-10T05:46:01.801Z,926.14
2017-04-10T05:46:30.155Z,926.16
2017-04-10T05:47:41.583Z,926.13
2017-04-10T05:48:09.862Z,926.16
2017-04-10T05:48:38.211Z,926.14
2017-04-10T05:49:06.354Z,926.15
2017-04-10T05:49:34.613Z,926.15
2017-04-10T05:50:03.013Z,926.2
2017-04-10T05:50:31.170Z,926.15
2017-04-10T05:50:59.532Z,926.18
2017-04-10T05:51:27.710Z,926.17
2017-04-10T05:51:55.988Z,926.2
2017-04-10T05:52:24.155Z,926.19
2017-04-10T05:53:35.395Z,926.17
2017-04-10T05:54:03.771Z,926.23
2017-04-10T05:54:32.119Z,926.23
2017-04-10T05:55:00.458Z,926.2
2017-04-10T05:55:28.715Z,926.21
2017-04-10T05:55:56.838Z,926.21
2017-04-10T05:56:25.079Z,926.19
2017-04-10T05:56:53.337Z,926.19
2017-04-10T05:57:21.514Z,926.19
2017-04-10T05:57:49.615Z,926.17
2017-04-10T05:58:17.781Z,926.18
2017-04-10T05:59:29.215Z,926.17
2017-04-10T05:59:57.403Z,926.18
2017-04-10T06:00:25.559Z,926.14
2017-04-10T06:00:53.704Z,926.22
2017-04-10T06:01:21.963Z,926.16
2017-04-10T06:01:50.279Z,926.18
2017-04-10T06:02:18.428Z,926.16
2017-04-10T06:02:46.689Z,926.18
2017-04-10T06:03:14.965Z,926.19
2017-04-10T06:03:43.344Z,926.18
2017-04-10T06:04:11.602Z,926.2
2017-04-10T06:05:22.943Z,926.16
2017-04-10T06:05:51.317Z,926.15
2017-04-10T06:06:19.567Z,926.15
2017-04-10T06:06:47.806Z,926.16
2017-04-10T06:07:16.062Z,926.17
2017-04-10T06:07:44.279Z,926.16
2017-04-10T06:08:12.435Z,926.14
2017-04-10T06:08:40.521Z,926.13
2017-04-10T06:09:08.699Z,926.15
2017-04-10T06:09:37.071Z,926.14
2017-04-10T06:10:05.422Z,926.17
2017-04-10T06:11:16.673Z,926.16
2017-04-10T06:11:44.953Z,926.16
2017-04-10T06:12:13.202Z,926.16
2017-04-10T06:12:41.355Z,926.17
2017-04-10T06:13:09.521Z,926.17
2017-04-10T06:13:37.828Z,926.15
2017-04-10T06:14:05.979Z,926.15
2017-04-10T06:14:34.789Z,926.14
2017-04-10T06:15:02.874Z,926.15
2017-04-10T06:15:31.159Z,926.11
2017-04-10T06:15:59.518Z,926.11
2017-04-10T06:17:10.765Z,926.15
2017-04-10T06:17:39.043Z,926.13
2017-04-10T06:18:07.207Z,926.1
2017-04-10T06:18:35.451Z,926.12
2017-04-10T06:19:03.615Z,926.1
2017-04-10T06:19:32.013Z,926.09
2017-04-10T06:20:00.165Z,926.11
2017-04-10T06:20:28.432Z,926.11
2017-04-10T06:20:56.704Z,926.1
2017-04-10T06:21:24.893Z,926.15
2017-04-10T06:21:53.246Z,926.12
2017-04-10T06:23:04.670Z,926.12
2017-04-10T06:23:32.945Z,926.12
2017-04-10T06:24:01.205Z,926.13
2017-04-10T06:24:29.443Z,926.11
2017-04-10T06:24:57.797Z,926.08
2017-04-10T06:25:26.207Z,926.11
2017-04-10T06:25:54.549Z,926.03
2017-04-10T06:26:22.905Z,926.01
2017-04-10T06:26:51.081Z,926.04
2017-04-10T06:27:19.185Z,926.06
2017-04-10T06:27:47.443Z,926.04
2017-04-10T06:28:58.877Z,926.07
2017-04-10T06:29:27.153Z,926.07
2017-04-10T06:29:55.503Z,926.02
2017-04-10T06:30:23.838Z,925.99
2017-04-10T06:30:52.192Z,926.04
2017-04-10T06:31:20.407Z,926
2017-04-10T06:31:48.652Z,926.02
2017-04-10T06:32:17.012Z,926.01
2017-04-10T06:32:45.376Z,925.99
2017-04-10T06:33:13.756Z,926.02
2017-04-10T06:33:42.012Z,925.95
2017-04-10T06:34:53.259Z,926
2017-04-10T06:35:21.538Z,926.01
2017-04-10T06:35:49.886Z,926.01
2017-04-10T06:36:18.218Z,926.02
2017-04-10T06:36:46.574Z,926.04
2017-04-10T06:37:14.968Z,926.03
2017-04-10T06:37:43.310Z,926.05
2017-04-10T06:38:11.570Z,926.04
2017-04-10T06:38:39.559Z,926.03
2017-04-10T06:39:07.843Z,926.02
2017-04-10T06:39:36.102Z,926.04
2017-04-10T06:40:47.441Z,926.03
2017-04-10T06:41:15.719Z,926.02
2017-04-10T06:41:43.969Z,926.01
2017-04-10T06:42:12.299Z,925.97
2017-04-10T06:42:40.561Z,925.99
2017-04-10T06:43:08.862Z,926